sensor_id;sensor_type;location;lat;lon;timestamp;pressure;altitude;pressure_sealevel;temperature;humidity
59829;BME280;45708;51.848;107.620;2023-02-12T00:02:21;96908.97;;;-18.51;68.60
59829;BME280;45708;51.848;107.620;2023-02-12T00:07:22;96915.69;;;-18.34;69.56
59829;BME280;45708;51.848;107.620;2023-02-12T00:12:23;96920.72;;;-18.31;68.45
59829;BME280;45708;51.848;107.620;2023-02-12T00:17:24;96924.13;;;-18.38;69.05
59829;BME280;45708;51.848;107.620;2023-02-12T00:22:25;96911.50;;;-18.38;68.38
59829;BME280;45708;51.848;107.620;2023-02-12T00:27:26;96945.09;;;-18.18;68.86
59829;BME280;45708;51.848;107.620;2023-02-12T00:32:26;96950.97;;;-18.10;68.57
59829;BME280;45708;51.848;107.620;2023-02-12T00:37:27;96949.03;;;-17.32;68.13
59829;BME280;45708;51.848;107.620;2023-02-12T00:42:28;96934.56;;;-15.93;66.30
59829;BME280;45708;51.848;107.620;2023-02-12T00:47:29;96800.03;;;-15.64;63.89
59829;BME280;45708;51.848;107.620;2023-02-12T00:52:30;96932.88;;;-13.16;62.29
59829;BME280;45708;51.848;107.620;2023-02-12T00:57:31;96948.69;;;-11.56;59.75
59829;BME280;45708;51.848;107.620;2023-02-12T01:02:31;96949.31;;;-10.29;57.29
59829;BME280;45708;51.848;107.620;2023-02-12T01:07:32;96938.16;;;-9.48;56.77
59829;BME280;45708;51.848;107.620;2023-02-12T01:12:33;96935.97;;;-9.59;55.36
59829;BME280;45708;51.848;107.620;2023-02-12T01:17:35;96941.00;;;-9.56;55.16
59829;BME280;45708;51.848;107.620;2023-02-12T01:22:37;96942.94;;;-9.38;52.49
59829;BME280;45708;51.848;107.620;2023-02-12T01:27:38;96936.28;;;-9.68;52.18
59829;BME280;45708;51.848;107.620;2023-02-12T01:32:38;96955.81;;;-9.41;51.36
59829;BME280;45708;51.848;107.620;2023-02-12T01:37:40;96941.69;;;-8.79;50.98
59829;BME280;45708;51.848;107.620;2023-02-12T01:42:40;96941.75;;;-8.57;49.95
59829;BME280;45708;51.848;107.620;2023-02-12T01:47:43;96946.69;;;-8.53;48.62
59829;BME280;45708;51.848;107.620;2023-02-12T01:52:50;96965.00;;;-10.39;49.74
59829;BME280;45708;51.848;107.620;2023-02-12T01:57:53;96968.88;;;-12.52;53.71
59829;BME280;45708;51.848;107.620;2023-02-12T02:02:57;96982.13;;;-13.65;55.45
59829;BME280;45708;51.848;107.620;2023-02-12T02:07:59;96978.66;;;-14.10;57.05
59829;BME280;45708;51.848;107.620;2023-02-12T02:13:01;96991.91;;;-14.45;57.10
59829;BME280;45708;51.848;107.620;2023-02-12T02:18:12;96987.63;;;-14.43;57.88
59829;BME280;45708;51.848;107.620;2023-02-12T02:34:53;96974.69;;;-13.29;57.24
59829;BME280;45708;51.848;107.620;2023-02-12T02:40:12;96987.78;;;-13.06;57.48
59829;BME280;45708;51.848;107.620;2023-02-12T02:45:27;96972.97;;;-12.87;57.22
59829;BME280;45708;51.848;107.620;2023-02-12T02:50:34;96988.03;;;-12.76;57.36
59829;BME280;45708;51.848;107.620;2023-02-12T02:55:43;97002.88;;;-12.97;57.30
59829;BME280;45708;51.848;107.620;2023-02-12T03:01:00;97001.50;;;-13.13;57.98
59829;BME280;45708;51.848;107.620;2023-02-12T03:06:09;96998.06;;;-13.12;57.24
59829;BME280;45708;51.848;107.620;2023-02-12T03:11:32;97002.25;;;-13.53;57.67
59829;BME280;45708;51.848;107.620;2023-02-12T03:16:38;97009.63;;;-13.39;57.82
59829;BME280;45708;51.848;107.620;2023-02-12T03:21:48;97012.28;;;-13.45;57.50
59829;BME280;45708;51.848;107.620;2023-02-12T03:27:25;97020.22;;;-13.17;57.58
59829;BME280;45708;51.848;107.620;2023-02-12T03:32:35;97009.09;;;-13.11;57.44
59829;BME280;45708;51.848;107.620;2023-02-12T03:37:50;97016.63;;;-13.07;57.38
59829;BME280;45708;51.848;107.620;2023-02-12T03:43:21;97009.69;;;-12.99;57.20
59829;BME280;45708;51.848;107.620;2023-02-12T03:53:48;96995.00;;;-12.46;56.67
59829;BME280;45708;51.848;107.620;2023-02-12T03:58:49;96997.63;;;-12.10;56.32
59829;BME280;45708;51.848;107.620;2023-02-12T04:03:50;96993.09;;;-11.98;55.71
59829;BME280;45708;51.848;107.620;2023-02-12T04:08:52;97008.00;;;-11.82;55.72
59829;BME280;45708;51.848;107.620;2023-02-12T04:14:30;97000.88;;;-11.70;55.92
59829;BME280;45708;51.848;107.620;2023-02-12T04:24:48;97006.47;;;-11.23;55.45
59829;BME280;45708;51.848;107.620;2023-02-12T04:40:26;97002.59;;;-10.74;55.05
59829;BME280;45708;51.848;107.620;2023-02-12T04:45:30;96996.19;;;-10.58;55.14
59829;BME280;45708;51.848;107.620;2023-02-12T04:50:40;96983.97;;;-10.48;55.61
59829;BME280;45708;51.848;107.620;2023-02-12T04:55:41;96986.13;;;-10.34;55.41
59829;BME280;45708;51.848;107.620;2023-02-12T05:00:42;96969.34;;;-10.43;52.55
59829;BME280;45708;51.848;107.620;2023-02-12T05:05:43;96974.78;;;-10.54;52.35
59829;BME280;45708;51.848;107.620;2023-02-12T05:10:44;96967.91;;;-10.52;50.65
59829;BME280;45708;51.848;107.620;2023-02-12T05:15:45;96956.25;;;-10.62;50.70
59829;BME280;45708;51.848;107.620;2023-02-12T05:20:54;96953.97;;;-10.41;51.50
59829;BME280;45708;51.848;107.620;2023-02-12T05:25:58;96957.97;;;-10.33;50.20
59829;BME280;45708;51.848;107.620;2023-02-12T05:31:00;96946.81;;;-10.30;51.64
59829;BME280;45708;51.848;107.620;2023-02-12T05:36:10;96937.19;;;-9.96;51.30
59829;BME280;45708;51.848;107.620;2023-02-12T05:41:29;96934.72;;;-9.72;51.02
59829;BME280;45708;51.848;107.620;2023-02-12T05:46:30;96923.84;;;-9.79;51.04
59829;BME280;45708;51.848;107.620;2023-02-12T05:51:31;96934.66;;;-9.46;49.56
59829;BME280;45708;51.848;107.620;2023-02-12T05:56:34;96929.31;;;-9.65;50.06
59829;BME280;45708;51.848;107.620;2023-02-12T06:01:38;96938.44;;;-9.83;49.82
59829;BME280;45708;51.848;107.620;2023-02-12T06:06:39;96935.47;;;-9.95;50.94
59829;BME280;45708;51.848;107.620;2023-02-12T06:11:41;96947.50;;;-9.99;50.53
59829;BME280;45708;51.848;107.620;2023-02-12T06:16:46;96923.75;;;-9.76;50.19
59829;BME280;45708;51.848;107.620;2023-02-12T06:21:47;96929.78;;;-9.29;50.60
59829;BME280;45708;51.848;107.620;2023-02-12T06:26:49;96931.88;;;-9.15;49.79
59829;BME280;45708;51.848;107.620;2023-02-12T06:31:50;96928.97;;;-9.06;49.37
59829;BME280;45708;51.848;107.620;2023-02-12T06:36:51;96929.63;;;-8.99;48.22
59829;BME280;45708;51.848;107.620;2023-02-12T06:41:52;96915.03;;;-8.97;47.43
59829;BME280;45708;51.848;107.620;2023-02-12T06:46:53;96910.56;;;-8.92;47.21
59829;BME280;45708;51.848;107.620;2023-02-12T06:51:53;96905.28;;;-8.87;47.17
59829;BME280;45708;51.848;107.620;2023-02-12T06:56:54;96898.44;;;-8.87;46.07
59829;BME280;45708;51.848;107.620;2023-02-12T07:01:55;96898.63;;;-8.70;46.86
59829;BME280;45708;51.848;107.620;2023-02-12T07:06:56;96903.00;;;-8.72;46.90
59829;BME280;45708;51.848;107.620;2023-02-12T07:11:57;96902.34;;;-8.55;46.46
59829;BME280;45708;51.848;107.620;2023-02-12T07:16:58;96906.25;;;-8.24;47.16
59829;BME280;45708;51.848;107.620;2023-02-12T07:21:59;96907.41;;;-7.89;44.80
59829;BME280;45708;51.848;107.620;2023-02-12T07:27:02;96902.53;;;-7.95;46.03
59829;BME280;45708;51.848;107.620;2023-02-12T07:32:03;96902.16;;;-7.86;45.67
59829;BME280;45708;51.848;107.620;2023-02-12T07:37:04;96921.72;;;-7.84;46.07
59829;BME280;45708;51.848;107.620;2023-02-12T07:42:07;96915.00;;;-7.66;47.50
59829;BME280;45708;51.848;107.620;2023-02-12T07:47:15;96914.25;;;-7.48;45.96
59829;BME280;45708;51.848;107.620;2023-02-12T07:52:20;96903.84;;;-7.65;45.34
59829;BME280;45708;51.848;107.620;2023-02-12T07:57:21;96929.69;;;-7.70;46.47
59829;BME280;45708;51.848;107.620;2023-02-12T08:02:22;96931.16;;;-7.44;45.73
59829;BME280;45708;51.848;107.620;2023-02-12T08:07:23;96935.03;;;-7.54;46.01
59829;BME280;45708;51.848;107.620;2023-02-12T08:12:24;96930.03;;;-7.57;46.17
59829;BME280;45708;51.848;107.620;2023-02-12T08:17:24;96927.13;;;-7.49;47.03
59829;BME280;45708;51.848;107.620;2023-02-12T08:22:25;96932.72;;;-7.60;45.40
59829;BME280;45708;51.848;107.620;2023-02-12T08:27:26;96929.72;;;-7.91;45.95
59829;BME280;45708;51.848;107.620;2023-02-12T08:32:27;96932.69;;;-8.01;46.54
59829;BME280;45708;51.848;107.620;2023-02-12T08:37:28;96937.31;;;-8.10;46.67
59829;BME280;45708;51.848;107.620;2023-02-12T08:42:28;96937.78;;;-8.22;47.13
59829;BME280;45708;51.848;107.620;2023-02-12T08:47:29;96943.09;;;-8.27;47.13
59829;BME280;45708;51.848;107.620;2023-02-12T08:52:30;96941.31;;;-8.25;47.58
59829;BME280;45708;51.848;107.620;2023-02-12T08:57:31;96940.09;;;-8.37;48.23
59829;BME280;45708;51.848;107.620;2023-02-12T09:02:31;96933.09;;;-8.55;47.85
59829;BME280;45708;51.848;107.620;2023-02-12T09:07:33;96932.84;;;-8.71;48.29
59829;BME280;45708;51.848;107.620;2023-02-12T09:12:34;96934.44;;;-8.92;47.76
59829;BME280;45708;51.848;107.620;2023-02-12T09:17:35;96932.50;;;-9.08;48.22
59829;BME280;45708;51.848;107.620;2023-02-12T09:22:36;96930.41;;;-9.22;49.09
59829;BME280;45708;51.848;107.620;2023-02-12T09:27:36;96923.97;;;-9.32;48.85
59829;BME280;45708;51.848;107.620;2023-02-12T09:32:37;96925.19;;;-9.44;48.76
59829;BME280;45708;51.848;107.620;2023-02-12T09:37:38;96931.25;;;-9.46;49.44
59829;BME280;45708;51.848;107.620;2023-02-12T09:53:28;96940.91;;;-10.06;47.73
59829;BME280;45708;51.848;107.620;2023-02-12T09:58:37;96946.91;;;-10.33;47.85
59829;BME280;45708;51.848;107.620;2023-02-12T10:03:41;96952.47;;;-10.49;48.40
59829;BME280;45708;51.848;107.620;2023-02-12T10:08:57;96949.50;;;-10.63;47.30
59829;BME280;45708;51.848;107.620;2023-02-12T10:14:29;96960.50;;;-10.90;47.49
59829;BME280;45708;51.848;107.620;2023-02-12T10:25:22;96960.72;;;-11.29;48.13
59829;BME280;45708;51.848;107.620;2023-02-12T10:30:47;96967.25;;;-11.51;48.20
59829;BME280;45708;51.848;107.620;2023-02-12T10:35:52;96974.41;;;-11.66;48.84
59829;BME280;45708;51.848;107.620;2023-02-12T10:40:54;96984.16;;;-11.80;48.47
59829;BME280;45708;51.848;107.620;2023-02-12T10:45:55;96978.47;;;-11.91;49.57
59829;BME280;45708;51.848;107.620;2023-02-12T11:01:32;96986.47;;;-12.06;49.48
59829;BME280;45708;51.848;107.620;2023-02-12T11:06:33;96982.50;;;-12.16;49.69
59829;BME280;45708;51.848;107.620;2023-02-12T11:11:37;96996.09;;;-12.17;49.69
59829;BME280;45708;51.848;107.620;2023-02-12T11:16:53;96992.81;;;-12.24;50.48
59829;BME280;45708;51.848;107.620;2023-02-12T11:22:12;96992.44;;;-12.44;50.64
59829;BME280;45708;51.848;107.620;2023-02-12T11:32:17;97002.59;;;-12.84;51.05
59829;BME280;45708;51.848;107.620;2023-02-12T11:37:19;97003.81;;;-13.02;51.92
59829;BME280;45708;51.848;107.620;2023-02-12T11:42:23;97015.22;;;-13.20;52.37
59829;BME280;45708;51.848;107.620;2023-02-12T11:47:33;97022.38;;;-13.42;54.19
59829;BME280;45708;51.848;107.620;2023-02-12T11:52:36;97016.66;;;-13.53;53.34
59829;BME280;45708;51.848;107.620;2023-02-12T11:57:54;97026.13;;;-13.63;53.51
59829;BME280;45708;51.848;107.620;2023-02-12T12:08:20;97037.47;;;-13.84;54.15
59829;BME280;45708;51.848;107.620;2023-02-12T12:13:34;97051.38;;;-14.06;54.00
59829;BME280;45708;51.848;107.620;2023-02-12T12:18:49;97057.53;;;-14.24;54.67
59829;BME280;45708;51.848;107.620;2023-02-12T12:24:19;97044.06;;;-14.27;54.76
59829;BME280;45708;51.848;107.620;2023-02-12T12:29:27;97046.66;;;-14.30;55.06
59829;BME280;45708;51.848;107.620;2023-02-12T12:34:32;97052.72;;;-14.39;55.38
59829;BME280;45708;51.848;107.620;2023-02-12T12:40:09;97037.75;;;-14.57;55.12
59829;BME280;45708;51.848;107.620;2023-02-12T12:56:30;97050.75;;;-14.85;56.28
59829;BME280;45708;51.848;107.620;2023-02-12T13:01:47;97055.13;;;-14.96;56.71
59829;BME280;45708;51.848;107.620;2023-02-12T13:28:14;97060.66;;;-15.42;56.15
59829;BME280;45708;51.848;107.620;2023-02-12T13:33:24;97051.44;;;-15.49;57.11
59829;BME280;45708;51.848;107.620;2023-02-12T13:38:34;97041.47;;;-15.64;57.20
59829;BME280;45708;51.848;107.620;2023-02-12T13:59:57;97069.53;;;-15.88;57.38
59829;BME280;45708;51.848;107.620;2023-02-12T14:04:59;97081.41;;;-15.93;57.31
59829;BME280;45708;51.848;107.620;2023-02-12T14:10:02;97064.59;;;-16.07;58.15
59829;BME280;45708;51.848;107.620;2023-02-12T14:15:05;97078.06;;;-15.98;57.62
59829;BME280;45708;51.848;107.620;2023-02-12T14:20:29;97073.84;;;-15.96;58.14
59829;BME280;45708;51.848;107.620;2023-02-12T14:41:36;97061.28;;;-16.12;58.82
59829;BME280;45708;51.848;107.620;2023-02-12T14:52:02;97050.50;;;-16.40;58.78
59829;BME280;45708;51.848;107.620;2023-02-12T15:02:27;97048.94;;;-16.65;59.28
59829;BME280;45708;51.848;107.620;2023-02-12T15:07:47;97050.63;;;-16.61;59.11
59829;BME280;45708;51.848;107.620;2023-02-12T15:18:17;97062.47;;;-16.68;59.55
59829;BME280;45708;51.848;107.620;2023-02-12T15:28:38;97044.00;;;-16.86;59.68
59829;BME280;45708;51.848;107.620;2023-02-12T15:33:45;97052.44;;;-16.80;59.82
59829;BME280;45708;51.848;107.620;2023-02-12T15:38:55;97052.44;;;-16.78;59.75
59829;BME280;45708;51.848;107.620;2023-02-12T15:43:57;97054.97;;;-16.80;59.94
59829;BME280;45708;51.848;107.620;2023-02-12T15:48:58;97053.28;;;-16.87;60.06
59829;BME280;45708;51.848;107.620;2023-02-12T15:54:00;97051.69;;;-17.06;59.64
59829;BME280;45708;51.848;107.620;2023-02-12T15:59:03;97052.59;;;-17.19;59.88
59829;BME280;45708;51.848;107.620;2023-02-12T16:04:06;97054.25;;;-17.14;60.45
59829;BME280;45708;51.848;107.620;2023-02-12T16:09:15;97045.78;;;-17.10;60.27
59829;BME280;45708;51.848;107.620;2023-02-12T16:14:24;97052.50;;;-17.03;60.66
59829;BME280;45708;51.848;107.620;2023-02-12T16:19:26;97055.03;;;-17.07;60.10
59829;BME280;45708;51.848;107.620;2023-02-12T16:24:38;97039.94;;;-17.23;60.31
59829;BME280;45708;51.848;107.620;2023-02-12T16:29:52;97039.09;;;-17.23;60.83
59829;BME280;45708;51.848;107.620;2023-02-12T16:34:59;97038.25;;;-17.24;61.10
59829;BME280;45708;51.848;107.620;2023-02-12T16:50:28;97029.91;;;-17.50;61.22
59829;BME280;45708;51.848;107.620;2023-02-12T16:55:29;97034.97;;;-17.53;61.20
59829;BME280;45708;51.848;107.620;2023-02-12T17:00:30;97034.97;;;-17.53;61.66
59829;BME280;45708;51.848;107.620;2023-02-12T17:05:31;97019.84;;;-17.56;61.74
59829;BME280;45708;51.848;107.620;2023-02-12T17:10:31;97006.41;;;-17.70;61.83
59829;BME280;45708;51.848;107.620;2023-02-12T17:15:37;97006.44;;;-17.73;62.03
59829;BME280;45708;51.848;107.620;2023-02-12T17:20:39;97008.97;;;-17.78;62.24
59829;BME280;45708;51.848;107.620;2023-02-12T17:25:40;97010.66;;;-17.81;62.37
59829;BME280;45708;51.848;107.620;2023-02-12T17:30:42;97003.94;;;-17.81;62.41
59829;BME280;45708;51.848;107.620;2023-02-12T17:35:43;97006.47;;;-18.01;61.97
59829;BME280;45708;51.848;107.620;2023-02-12T17:40:44;97000.59;;;-18.10;62.51
59829;BME280;45708;51.848;107.620;2023-02-12T17:45:44;96994.69;;;-18.02;62.24
59829;BME280;45708;51.848;107.620;2023-02-12T17:50:52;96993.84;;;-17.96;62.15
59829;BME280;45708;51.848;107.620;2023-02-12T17:55:53;97003.09;;;-18.03;62.86
59829;BME280;45708;51.848;107.620;2023-02-12T18:00:54;97008.16;;;-18.12;62.57
59829;BME280;45708;51.848;107.620;2023-02-12T18:05:55;97006.47;;;-18.18;62.27
59829;BME280;45708;51.848;107.620;2023-02-12T18:10:56;97014.88;;;-18.19;62.82
59829;BME280;45708;51.848;107.620;2023-02-12T18:15:57;97013.19;;;-18.18;63.14
59829;BME280;45708;51.848;107.620;2023-02-12T18:20:58;97002.25;;;-18.31;63.17
59829;BME280;45708;51.848;107.620;2023-02-12T18:25:58;97003.09;;;-18.33;62.75
59829;BME280;45708;51.848;107.620;2023-02-12T18:30:59;96998.03;;;-18.46;63.81
59829;BME280;45708;51.848;107.620;2023-02-12T18:36:03;97001.38;;;-18.62;62.67
59829;BME280;45708;51.848;107.620;2023-02-12T18:41:12;97013.16;;;-18.76;63.24
59829;BME280;45708;51.848;107.620;2023-02-12T18:46:18;97015.63;;;-18.93;63.93
59829;BME280;45708;51.848;107.620;2023-02-12T18:51:22;97002.22;;;-18.83;63.60
59829;BME280;45708;51.848;107.620;2023-02-12T18:56:23;97009.75;;;-18.90;63.69
59829;BME280;45708;51.848;107.620;2023-02-12T19:01:25;97006.34;;;-19.04;63.70
59829;BME280;45708;51.848;107.620;2023-02-12T19:06:29;97006.34;;;-19.08;63.65
59829;BME280;45708;51.848;107.620;2023-02-12T19:11:30;96993.75;;;-19.18;63.54
59829;BME280;45708;51.848;107.620;2023-02-12T19:16:31;97013.81;;;-19.33;63.67
59829;BME280;45708;51.848;107.620;2023-02-12T19:21:36;97021.31;;;-19.44;63.20
59829;BME280;45708;51.848;107.620;2023-02-12T19:26:37;97018.78;;;-19.44;63.95
59829;BME280;45708;51.848;107.620;2023-02-12T19:31:43;97028.81;;;-19.52;63.22
59829;BME280;45708;51.848;107.620;2023-02-12T19:36:46;97026.31;;;-19.49;63.93
59829;BME280;45708;51.848;107.620;2023-02-12T19:41:50;97032.19;;;-19.56;63.80
59829;BME280;45708;51.848;107.620;2023-02-12T19:46:54;97039.75;;;-19.56;63.97
59829;BME280;45708;51.848;107.620;2023-02-12T19:51:55;97017.16;;;-19.39;63.62
59829;BME280;45708;51.848;107.620;2023-02-12T19:56:56;96992.78;;;-19.43;63.34
59829;BME280;45708;51.848;107.620;2023-02-12T20:01:57;97013.91;;;-19.14;63.66
59829;BME280;45708;51.848;107.620;2023-02-12T20:06:59;97009.69;;;-19.10;64.35
59829;BME280;45708;51.848;107.620;2023-02-12T20:12:00;97011.38;;;-19.11;63.84
59829;BME280;45708;51.848;107.620;2023-02-12T20:17:01;97003.00;;;-19.06;64.60
59829;BME280;45708;51.848;107.620;2023-02-12T20:22:02;97002.19;;;-18.99;63.76
59829;BME280;45708;51.848;107.620;2023-02-12T20:27:03;96985.41;;;-19.00;64.52
59829;BME280;45708;51.848;107.620;2023-02-12T20:32:04;96980.38;;;-19.00;64.04
59829;BME280;45708;51.848;107.620;2023-02-12T20:37:05;96979.50;;;-19.02;64.83
59829;BME280;45708;51.848;107.620;2023-02-12T20:42:05;96985.41;;;-18.97;63.93
59829;BME280;45708;51.848;107.620;2023-02-12T20:47:06;96976.16;;;-18.92;65.07
59829;BME280;45708;51.848;107.620;2023-02-12T20:52:07;96976.16;;;-18.92;64.57
59829;BME280;45708;51.848;107.620;2023-02-12T20:57:08;96970.28;;;-19.00;65.22
59829;BME280;45708;51.848;107.620;2023-02-12T21:02:10;96978.63;;;-19.15;65.21
59829;BME280;45708;51.848;107.620;2023-02-12T21:07:11;96967.66;;;-19.28;65.48
59829;BME280;45708;51.848;107.620;2023-02-12T21:12:12;96970.16;;;-19.37;65.30
59829;BME280;45708;51.848;107.620;2023-02-12T21:17:12;96967.66;;;-19.40;65.03
59829;BME280;45708;51.848;107.620;2023-02-12T21:22:13;96974.34;;;-19.39;65.71
59829;BME280;45708;51.848;107.620;2023-02-12T21:27:14;96972.63;;;-19.43;66.03
59829;BME280;45708;51.848;107.620;2023-02-12T21:32:15;96970.16;;;-19.42;65.93
59829;BME280;45708;51.848;107.620;2023-02-12T21:37:16;96970.13;;;-19.54;66.12
59829;BME280;45708;51.848;107.620;2023-02-12T21:42:17;96961.75;;;-19.54;65.69
59829;BME280;45708;51.848;107.620;2023-02-12T21:47:18;96955.03;;;-19.57;66.16
59829;BME280;45708;51.848;107.620;2023-02-12T21:52:19;96965.84;;;-19.68;66.45
59829;BME280;45708;51.848;107.620;2023-02-12T21:57:20;96965.84;;;-19.68;66.56
59829;BME280;45708;51.848;107.620;2023-02-12T22:02:21;96954.94;;;-19.72;66.07
59829;BME280;45708;51.848;107.620;2023-02-12T22:07:22;96962.50;;;-19.67;65.78
59829;BME280;45708;51.848;107.620;2023-02-12T22:12:22;96956.63;;;-19.71;66.73
59829;BME280;45708;51.848;107.620;2023-02-12T22:17:23;96962.50;;;-19.67;66.25
59829;BME280;45708;51.848;107.620;2023-02-12T22:22:25;96958.38;;;-19.59;67.42
59829;BME280;45708;51.848;107.620;2023-02-12T22:27:30;96969.22;;;-19.66;67.25
59829;BME280;45708;51.848;107.620;2023-02-12T22:32:30;96969.22;;;-19.66;67.40
59829;BME280;45708;51.848;107.620;2023-02-12T22:37:31;96947.31;;;-19.84;67.13
59829;BME280;45708;51.848;107.620;2023-02-12T22:42:32;96934.72;;;-19.95;66.92
59829;BME280;45708;51.848;107.620;2023-02-12T22:47:33;96937.31;;;-19.77;67.17
59829;BME280;45708;51.848;107.620;2023-02-12T22:52:33;96933.13;;;-19.81;67.10
59829;BME280;45708;51.848;107.620;2023-02-12T22:57:34;96947.28;;;-19.98;66.80
59829;BME280;45708;51.848;107.620;2023-02-12T23:02:35;96933.78;;;-20.12;67.68
59829;BME280;45708;51.848;107.620;2023-02-12T23:07:37;96896.72;;;-20.47;67.48
59829;BME280;45708;51.848;107.620;2023-02-12T23:12:38;96932.78;;;-20.37;67.61
59829;BME280;45708;51.848;107.620;2023-02-12T23:17:39;96937.09;;;-20.16;67.78
59829;BME280;45708;51.848;107.620;2023-02-12T23:22:40;96933.88;;;-19.89;67.52
59829;BME280;45708;51.848;107.620;2023-02-12T23:27:40;96964.13;;;-19.82;66.96
59829;BME280;45708;51.848;107.620;2023-02-12T23:32:41;96965.59;;;-20.16;67.06
59829;BME280;45708;51.848;107.620;2023-02-12T23:37:42;96975.56;;;-20.28;67.46
59829;BME280;45708;51.848;107.620;2023-02-12T23:42:43;96982.25;;;-20.28;67.62
59829;BME280;45708;51.848;107.620;2023-02-12T23:47:44;96969.69;;;-20.30;67.37
59829;BME280;45708;51.848;107.620;2023-02-12T23:52:45;96962.09;;;-20.41;67.62
59829;BME280;45708;51.848;107.620;2023-02-12T23:57:46;96970.47;;;-20.42;67.81
